Time;durP1;ratioP1;P1;durP2;ratioP2;P2;SDS_P1;SDS_P2;PMS_P1;PMS_P2;Temp;Humidity;BMP_temperature;BMP_pressure;BME280_temperature;BME280_humidity;BME280_pressure;Samples;Min_cycle;Max_cycle;Signal;HPM_P1;HPM_P2
2021/10/20 00:00:20;;;;;;;4.28;1.92;;;;;;;;;;5057940;28;20049;-82
2021/10/20 00:02:49;;;;;;;3.80;2.15;;;;;;;;;;5070426;28;20375;-82
2021/10/20 00:05:16;;;;;;;3.08;1.70;;;;;;;;;;5081141;28;20041;-82
2021/10/20 00:07:44;;;;;;;5.97;2.42;;;;;;;;;;5074474;28;20041;-82
2021/10/20 00:10:10;;;;;;;5.60;2.20;;;;;;;;;;5073675;28;20132;-82
2021/10/20 00:12:37;;;;;;;4.32;1.92;;;;;;;;;;5074610;28;20037;-82
2021/10/20 00:15:05;;;;;;;4.53;2.20;;;;;;;;;;5070660;28;20057;-82
2021/10/20 00:17:31;;;;;;;2.92;1.90;;;;;;;;;;5074084;28;20040;-82
2021/10/20 00:20:05;;;;;;;3.83;1.98;;;;;;;;;;5074481;28;20044;-82
2021/10/20 00:22:32;;;;;;;3.83;2.00;;;;;;;;;;5073146;28;20529;-82
2021/10/20 00:24:58;;;;;;;3.67;1.80;;;;;;;;;;5075347;28;20389;-82
2021/10/20 00:27:26;;;;;;;3.83;2.15;;;;;;;;;;5076415;28;20397;-82
2021/10/20 00:29:53;;;;;;;4.10;1.85;;;;;;;;;;5066056;28;20041;-82
2021/10/20 00:32:19;;;;;;;4.65;2.30;;;;;;;;;;5075883;28;20378;-82
2021/10/20 00:34:45;;;;;;;5.47;2.20;;;;;;;;;;5075115;28;20044;-82
2021/10/20 00:37:13;;;;;;;3.85;2.20;;;;;;;;;;5067832;28;20048;-82
2021/10/20 00:39:40;;;;;;;3.65;1.83;;;;;;;;;;5080563;28;20048;-82
2021/10/20 00:42:06;;;;;;;6.40;2.38;;;;;;;;;;5073558;28;20094;-82
2021/10/20 00:44:45;;;;;;;3.88;1.70;;;;;;;;;;5070477;28;20044;-82
2021/10/20 00:47:11;;;;;;;3.55;1.90;;;;;;;;;;5069850;28;20047;-82
2021/10/20 00:49:40;;;;;;;3.47;1.75;;;;;;;;;;5065173;28;20040;-82
2021/10/20 00:52:11;;;;;;;3.63;2.00;;;;;;;;;;5072259;28;20106;-82
2021/10/20 00:54:40;;;;;;;2.42;1.60;;;;;;;;;;5057782;28;20052;-82
2021/10/20 00:57:08;;;;;;;3.47;1.52;;;;;;;;;;5081060;28;20048;-82
2021/10/20 00:59:34;;;;;;;5.05;2.10;;;;;;;;;;5074510;28;20516;-82
2021/10/20 01:02:01;;;;;;;5.63;2.55;;;;;;;;;;5087134;28;20051;-82
2021/10/20 01:04:28;;;;;;;4.78;1.90;;;;;;;;;;5087686;28;20051;-82
2021/10/20 01:06:54;;;;;;;3.35;1.98;;;;;;;;;;5083007;28;20044;-82
2021/10/20 01:09:21;;;;;;;2.92;1.60;;;;;;;;;;5067044;28;20497;-82
2021/10/20 01:11:50;;;;;;;4.22;2.20;;;;;;;;;;5063059;28;20052;-82
2021/10/20 01:14:17;;;;;;;3.33;1.67;;;;;;;;;;5063289;28;20045;-82
2021/10/20 01:16:44;;;;;;;3.45;1.77;;;;;;;;;;5084159;28;20485;-82
2021/10/20 01:19:11;;;;;;;3.13;1.65;;;;;;;;;;5075779;28;20495;-82
2021/10/20 01:21:39;;;;;;;4.13;2.10;;;;;;;;;;5048390;28;20102;-82
2021/10/20 01:24:06;;;;;;;3.50;1.80;;;;;;;;;;5071309;28;20390;-82
2021/10/20 01:26:33;;;;;;;3.90;1.75;;;;;;;;;;5077481;28;20465;-82
2021/10/20 01:29:00;;;;;;;4.03;2.20;;;;;;;;;;5093118;28;20048;-82
2021/10/20 01:31:27;;;;;;;3.38;1.90;;;;;;;;;;5089915;28;20052;-82
2021/10/20 01:33:53;;;;;;;4.40;2.30;;;;;;;;;;5057754;28;20041;-82
2021/10/20 01:36:20;;;;;;;5.20;2.10;;;;;;;;;;5067902;28;20584;-82
2021/10/20 01:38:50;;;;;;;6.30;1.98;;;;;;;;;;5061682;28;20059;-82
2021/10/20 01:41:17;;;;;;;6.03;2.03;;;;;;;;;;5056967;28;20129;-82
2021/10/20 01:43:45;;;;;;;5.28;2.22;;;;;;;;;;5075655;28;20037;-82
2021/10/20 01:46:12;;;;;;;4.03;1.83;;;;;;;;;;5074822;28;20044;-82
2021/10/20 01:48:38;;;;;;;9.07;2.45;;;;;;;;;;5077633;28;20040;-82
2021/10/20 01:51:05;;;;;;;6.32;2.55;;;;;;;;;;5088548;28;20044;-82
2021/10/20 01:53:31;;;;;;;5.63;1.98;;;;;;;;;;5063461;28;20059;-82
2021/10/20 01:55:59;;;;;;;4.18;2.17;;;;;;;;;;5075028;28;20040;-82
2021/10/20 01:58:26;;;;;;;5.38;2.03;;;;;;;;;;5064772;28;20500;-82
2021/10/20 02:00:52;;;;;;;5.88;2.58;;;;;;;;;;5071508;28;20523;-82
2021/10/20 02:03:19;;;;;;;5.75;2.33;;;;;;;;;;5048788;28;20037;-82
2021/10/20 02:05:45;;;;;;;4.15;2.08;;;;;;;;;;5064412;28;20051;-82
2021/10/20 02:08:12;;;;;;;3.92;2.00;;;;;;;;;;5064224;28;20053;-82
2021/10/20 02:10:39;;;;;;;4.68;2.10;;;;;;;;;;5068749;28;20049;-82
2021/10/20 02:13:06;;;;;;;5.97;2.03;;;;;;;;;;5056807;28;20056;-82
2021/10/20 02:15:33;;;;;;;8.98;2.20;;;;;;;;;;5060200;28;20052;-82
2021/10/20 02:18:00;;;;;;;4.35;1.80;;;;;;;;;;5043069;28;20049;-82
2021/10/20 02:20:26;;;;;;;4.32;1.90;;;;;;;;;;5067243;28;20049;-82
2021/10/20 02:22:53;;;;;;;6.82;2.03;;;;;;;;;;5064421;28;20049;-82
2021/10/20 02:25:19;;;;;;;3.38;1.73;;;;;;;;;;5064727;28;20037;-82
2021/10/20 02:27:46;;;;;;;3.35;1.90;;;;;;;;;;5064148;28;20049;-82
2021/10/20 02:30:14;;;;;;;2.47;1.38;;;;;;;;;;5035967;28;20044;-82
2021/10/20 02:32:41;;;;;;;3.67;1.75;;;;;;;;;;5076366;28;20036;-82
2021/10/20 02:35:09;;;;;;;3.60;1.92;;;;;;;;;;5050439;28;20045;-82
2021/10/20 02:37:35;;;;;;;3.28;1.65;;;;;;;;;;5064147;28;20497;-82
2021/10/20 02:40:03;;;;;;;3.55;1.67;;;;;;;;;;5058747;28;20486;-82
2021/10/20 02:42:29;;;;;;;3.55;1.80;;;;;;;;;;5078670;28;20052;-82
2021/10/20 02:44:56;;;;;;;3.33;1.77;;;;;;;;;;5078906;28;20044;-82
2021/10/20 02:47:24;;;;;;;3.33;1.60;;;;;;;;;;5068159;28;20044;-82
2021/10/20 02:49:50;;;;;;;2.33;1.38;;;;;;;;;;5077445;28;20056;-82
2021/10/20 02:52:18;;;;;;;3.08;1.45;;;;;;;;;;5072305;28;20045;-82
2021/10/20 02:54:45;;;;;;;3.42;1.60;;;;;;;;;;5068457;28;20080;-82
2021/10/20 02:57:11;;;;;;;3.10;1.67;;;;;;;;;;5044511;28;20044;-81
2021/10/20 02:59:38;;;;;;;3.30;2.00;;;;;;;;;;5059230;28;20048;-81
2021/10/20 03:02:04;;;;;;;3.85;1.70;;;;;;;;;;5053395;28;20301;-82
2021/10/20 03:04:33;;;;;;;3.17;1.70;;;;;;;;;;5077564;28;20045;-81
2021/10/20 03:06:59;;;;;;;4.20;1.58;;;;;;;;;;5074760;28;20059;-81
2021/10/20 03:09:27;;;;;;;2.63;1.42;;;;;;;;;;5050935;28;20045;-81
2021/10/20 03:11:53;;;;;;;3.95;1.88;;;;;;;;;;5069602;28;20514;-81
2021/10/20 03:14:20;;;;;;;4.43;1.55;;;;;;;;;;5074053;28;20052;-81
2021/10/20 03:16:46;;;;;;;3.05;1.60;;;;;;;;;;5055077;28;20045;-81
2021/10/20 03:19:13;;;;;;;4.68;1.77;;;;;;;;;;5067115;28;20105;-81
2021/10/20 03:21:41;;;;;;;3.63;1.75;;;;;;;;;;5077216;28;20055;-81
2021/10/20 03:24:08;;;;;;;3.15;1.60;;;;;;;;;;5072371;28;20048;-81
2021/10/20 03:26:35;;;;;;;3.28;1.50;;;;;;;;;;5067354;28;20071;-81
2021/10/20 03:29:01;;;;;;;3.50;1.52;;;;;;;;;;5059403;28;20080;-81
2021/10/20 03:31:28;;;;;;;3.80;1.70;;;;;;;;;;5056927;28;20045;-82
2021/10/20 03:33:54;;;;;;;3.35;1.70;;;;;;;;;;5070381;28;20044;-82
2021/10/20 03:36:21;;;;;;;2.67;1.27;;;;;;;;;;5066831;28;20044;-81
2021/10/20 03:38:49;;;;;;;2.00;1.20;;;;;;;;;;5066683;28;20485;-81
2021/10/20 03:41:15;;;;;;;2.67;1.50;;;;;;;;;;5064659;28;20139;-81
2021/10/20 03:43:42;;;;;;;2.97;1.80;;;;;;;;;;5066628;28;20044;-81
2021/10/20 03:46:09;;;;;;;3.47;1.27;;;;;;;;;;5051373;28;20085;-81
2021/10/20 03:48:36;;;;;;;2.92;1.40;;;;;;;;;;5070393;28;20056;-82
2021/10/20 03:51:03;;;;;;;3.42;1.60;;;;;;;;;;5062814;28;20040;-81
2021/10/20 03:53:29;;;;;;;3.28;1.50;;;;;;;;;;5071028;28;20382;-81
2021/10/20 03:55:57;;;;;;;6.28;1.50;;;;;;;;;;5058963;28;20079;-82
2021/10/20 03:58:23;;;;;;;2.60;1.60;;;;;;;;;;5062783;28;20044;-82
2021/10/20 04:00:50;;;;;;;6.80;2.15;;;;;;;;;;5058882;28;20052;-81
2021/10/20 04:03:17;;;;;;;3.35;1.80;;;;;;;;;;5063469;28;20060;-81
2021/10/20 04:05:44;;;;;;;3.15;1.60;;;;;;;;;;5060496;28;20041;-81
2021/10/20 04:08:10;;;;;;;3.30;1.83;;;;;;;;;;5073726;28;20554;-82
2021/10/20 04:10:37;;;;;;;3.85;1.98;;;;;;;;;;5070730;28;20048;-81
2021/10/20 04:13:05;;;;;;;3.67;1.50;;;;;;;;;;5057337;28;20101;-81
2021/10/20 04:15:32;;;;;;;4.65;2.13;;;;;;;;;;5075622;28;20397;-81
2021/10/20 04:17:58;;;;;;;4.28;1.52;;;;;;;;;;5077779;28;20055;-83
2021/10/20 04:20:25;;;;;;;3.50;1.80;;;;;;;;;;5068619;28;20049;-81
2021/10/20 04:22:53;;;;;;;4.70;1.90;;;;;;;;;;5069486;28;20076;-81
2021/10/20 04:25:20;;;;;;;4.88;1.92;;;;;;;;;;5067768;28;20486;-82
2021/10/20 04:27:48;;;;;;;4.45;2.08;;;;;;;;;;5063127;28;20060;-81
2021/10/20 04:30:18;;;;;;;3.50;1.63;;;;;;;;;;5071362;28;20127;-82
2021/10/20 04:32:45;;;;;;;3.67;1.67;;;;;;;;;;5063214;28;20040;-82
2021/10/20 04:35:12;;;;;;;3.00;1.48;;;;;;;;;;5072328;28;20045;-81
2021/10/20 04:37:39;;;;;;;2.22;1.40;;;;;;;;;;5067390;28;20461;-81
2021/10/20 04:40:08;;;;;;;2.75;1.17;;;;;;;;;;5075206;28;20048;-81
2021/10/20 04:42:35;;;;;;;4.78;1.38;;;;;;;;;;5052619;28;20045;-81
2021/10/20 04:45:02;;;;;;;3.75;1.77;;;;;;;;;;5065068;28;20783;-82
2021/10/20 04:47:30;;;;;;;3.83;1.40;;;;;;;;;;5071077;28;20040;-83
2021/10/20 04:49:57;;;;;;;5.30;1.48;;;;;;;;;;5063840;28;20049;-80
2021/10/20 04:52:24;;;;;;;6.35;3.70;;;;;;;;;;5068867;28;20422;-82
2021/10/20 04:54:51;;;;;;;5.40;3.38;;;;;;;;;;5065463;28;20087;-82
2021/10/20 04:57:18;;;;;;;3.97;2.13;;;;;;;;;;5064341;28;20048;-82
2021/10/20 04:59:44;;;;;;;3.45;1.90;;;;;;;;;;5061617;28;20054;-81
2021/10/20 05:02:11;;;;;;;3.92;2.03;;;;;;;;;;5075009;28;20048;-80
2021/10/20 05:04:39;;;;;;;5.07;1.85;;;;;;;;;;5057577;28;20607;-81
2021/10/20 05:07:05;;;;;;;3.33;1.88;;;;;;;;;;5067408;28;20054;-81
2021/10/20 05:09:32;;;;;;;4.53;1.92;;;;;;;;;;5071860;28;20041;-83
2021/10/20 05:11:58;;;;;;;4.50;1.60;;;;;;;;;;5068626;28;20049;-82
2021/10/20 05:14:25;;;;;;;4.00;1.60;;;;;;;;;;5060575;28;20107;-82
2021/10/20 05:16:52;;;;;;;2.33;1.48;;;;;;;;;;5073295;28;20087;-81
2021/10/20 05:19:18;;;;;;;3.05;1.52;;;;;;;;;;5078079;28;20043;-81
2021/10/20 05:21:46;;;;;;;2.67;1.42;;;;;;;;;;5074288;28;20049;-81
2021/10/20 05:24:12;;;;;;;2.42;1.33;;;;;;;;;;5091582;28;20055;-80
2021/10/20 05:26:38;;;;;;;4.35;1.75;;;;;;;;;;5076896;28;20045;-81
2021/10/20 05:29:05;;;;;;;5.10;1.33;;;;;;;;;;5062271;28;20482;-80
2021/10/20 05:31:32;;;;;;;4.10;1.30;;;;;;;;;;5076791;28;20409;-81
2021/10/20 05:33:58;;;;;;;2.47;1.35;;;;;;;;;;5044096;28;20149;-81
2021/10/20 05:36:25;;;;;;;3.47;1.60;;;;;;;;;;5062550;28;20492;-80
2021/10/20 05:38:53;;;;;;;4.72;1.98;;;;;;;;;;5074275;28;20056;-81
2021/10/20 05:41:19;;;;;;;5.05;3.42;;;;;;;;;;5071594;28;20048;-80
2021/10/20 05:43:46;;;;;;;4.60;1.60;;;;;;;;;;5068796;28;20044;-81
2021/10/20 05:46:12;;;;;;;2.28;1.40;;;;;;;;;;5069963;28;20524;-82
2021/10/20 05:48:38;;;;;;;4.10;1.88;;;;;;;;;;5066044;28;20052;-80
2021/10/20 05:51:05;;;;;;;5.30;2.67;;;;;;;;;;5073425;28;20041;-80
2021/10/20 05:53:31;;;;;;;9.57;2.95;;;;;;;;;;5071032;28;20040;-80
2021/10/20 05:55:59;;;;;;;6.60;2.45;;;;;;;;;;5075386;28;20055;-80
2021/10/20 05:58:26;;;;;;;3.42;2.40;;;;;;;;;;5066340;28;20056;-80
2021/10/20 06:00:52;;;;;;;4.38;2.05;;;;;;;;;;5077902;28;20048;-80
2021/10/20 06:03:18;;;;;;;4.15;2.03;;;;;;;;;;5070104;28;20052;-81
2021/10/20 06:05:45;;;;;;;3.30;1.65;;;;;;;;;;5072478;28;20040;-80
2021/10/20 06:08:11;;;;;;;3.78;1.77;;;;;;;;;;5072746;28;20052;-81
2021/10/20 06:10:38;;;;;;;2.75;1.60;;;;;;;;;;5063155;28;20059;-81
2021/10/20 06:13:05;;;;;;;4.60;1.60;;;;;;;;;;5067684;28;20048;-79
2021/10/20 06:15:32;;;;;;;8.10;2.25;;;;;;;;;;5068301;28;20049;-79
2021/10/20 06:17:59;;;;;;;7.68;4.22;;;;;;;;;;5068609;28;20382;-80
2021/10/20 06:20:25;;;;;;;6.40;2.72;;;;;;;;;;5074729;28;20051;-79
2021/10/20 06:22:51;;;;;;;7.20;4.80;;;;;;;;;;5069642;28;20658;-79
2021/10/20 06:25:18;;;;;;;7.13;4.90;;;;;;;;;;5059792;28;20045;-79
2021/10/20 06:27:44;;;;;;;6.35;5.32;;;;;;;;;;5071229;28;20048;-80
2021/10/20 06:30:12;;;;;;;6.60;4.32;;;;;;;;;;5068324;28;20096;-80
2021/10/20 06:32:42;;;;;;;7.68;3.92;;;;;;;;;;5070196;28;20047;-80
2021/10/20 06:35:10;;;;;;;5.85;3.80;;;;;;;;;;5076528;28;20045;-81
2021/10/20 06:37:36;;;;;;;5.82;3.60;;;;;;;;;;5064843;28;20060;-82
2021/10/20 06:40:03;;;;;;;6.93;3.67;;;;;;;;;;5077543;28;20044;-81
2021/10/20 06:42:30;;;;;;;7.93;4.18;;;;;;;;;;5074231;28;20041;-81
2021/10/20 06:44:56;;;;;;;5.25;3.83;;;;;;;;;;5058659;28;20045;-81
2021/10/20 06:47:25;;;;;;;7.80;4.10;;;;;;;;;;5057889;28;20049;-81
2021/10/20 06:49:52;;;;;;;5.78;3.70;;;;;;;;;;5075088;28;20123;-82
2021/10/20 06:52:18;;;;;;;9.13;5.05;;;;;;;;;;5076331;28;20051;-81
2021/10/20 06:54:45;;;;;;;7.68;3.63;;;;;;;;;;5068994;28;20045;-81
2021/10/20 06:57:11;;;;;;;6.60;3.28;;;;;;;;;;5073009;28;20052;-81
2021/10/20 06:59:38;;;;;;;7.57;4.38;;;;;;;;;;5067856;28;20044;-80
2021/10/20 07:02:04;;;;;;;8.82;4.78;;;;;;;;;;5061350;28;20052;-80
2021/10/20 07:04:32;;;;;;;4.40;2.60;;;;;;;;;;5067592;28;20041;-82
2021/10/20 07:06:59;;;;;;;4.10;1.70;;;;;;;;;;5054826;28;20498;-82
2021/10/20 07:09:26;;;;;;;4.82;1.90;;;;;;;;;;5054999;28;20051;-82
2021/10/20 07:11:52;;;;;;;6.60;3.33;;;;;;;;;;5074861;28;20044;-82
2021/10/20 07:14:19;;;;;;;18.17;11.07;;;;;;;;;;5068843;28;20099;-83
2021/10/20 07:16:45;;;;;;;15.93;8.43;;;;;;;;;;5067216;28;20049;-81
2021/10/20 07:19:12;;;;;;;20.80;14.07;;;;;;;;;;5063140;28;20047;-81
2021/10/20 07:21:40;;;;;;;21.63;13.02;;;;;;;;;;5075030;28;20052;-82
2021/10/20 07:24:06;;;;;;;23.98;16.65;;;;;;;;;;5073488;28;20048;-81
2021/10/20 07:26:33;;;;;;;22.80;16.42;;;;;;;;;;5066202;28;20099;-81
2021/10/20 07:29:00;;;;;;;26.73;16.75;;;;;;;;;;5067685;28;20045;-82
2021/10/20 07:31:29;;;;;;;18.58;9.48;;;;;;;;;;5073547;28;20043;-80
2021/10/20 07:33:56;;;;;;;10.77;6.00;;;;;;;;;;5071626;28;20124;-82
2021/10/20 07:36:22;;;;;;;12.55;6.65;;;;;;;;;;5056466;28;20053;-82
2021/10/20 07:38:51;;;;;;;8.60;5.03;;;;;;;;;;5066162;28;20044;-81
2021/10/20 07:41:17;;;;;;;7.63;4.30;;;;;;;;;;5072154;28;20048;-81
2021/10/20 07:43:44;;;;;;;6.43;2.80;;;;;;;;;;5069468;28;20470;-82
2021/10/20 07:46:10;;;;;;;6.88;3.58;;;;;;;;;;5068021;28;20101;-82
2021/10/20 07:48:37;;;;;;;7.47;3.30;;;;;;;;;;5062107;28;20448;-81
2021/10/20 07:51:03;;;;;;;6.85;3.40;;;;;;;;;;5067546;28;20040;-80
2021/10/20 07:53:30;;;;;;;7.55;4.13;;;;;;;;;;5070723;28;20044;-83
2021/10/20 07:55:58;;;;;;;10.43;6.30;;;;;;;;;;5068830;28;20442;-83
2021/10/20 07:58:24;;;;;;;7.72;4.38;;;;;;;;;;5064591;28;20044;-81
2021/10/20 08:00:50;;;;;;;7.60;4.60;;;;;;;;;;5060676;28;20359;-81
2021/10/20 08:03:17;;;;;;;7.93;3.58;;;;;;;;;;5063098;28;20045;-81
2021/10/20 08:05:43;;;;;;;7.55;3.10;;;;;;;;;;5070003;28;20049;-81
2021/10/20 08:08:10;;;;;;;6.43;3.38;;;;;;;;;;5046397;28;20083;-81
2021/10/20 08:10:40;;;;;;;6.00;3.80;;;;;;;;;;5069047;28;20041;-81
2021/10/20 08:13:08;;;;;;;5.03;3.05;;;;;;;;;;5059554;28;20045;-81
2021/10/20 08:15:34;;;;;;;5.97;3.70;;;;;;;;;;5053929;28;20077;-79
2021/10/20 08:18:03;;;;;;;5.47;3.00;;;;;;;;;;5063852;28;20084;-80
2021/10/20 08:20:31;;;;;;;4.85;3.28;;;;;;;;;;5074667;28;20382;-82
2021/10/20 08:22:58;;;;;;;6.40;3.38;;;;;;;;;;5057278;28;20413;-81
2021/10/20 08:25:25;;;;;;;5.45;3.10;;;;;;;;;;5066949;28;20048;-82
2021/10/20 08:27:51;;;;;;;4.95;3.08;;;;;;;;;;5046723;28;20118;-82
2021/10/20 08:30:20;;;;;;;4.68;3.00;;;;;;;;;;5066770;28;20053;-82
2021/10/20 08:32:48;;;;;;;7.13;3.17;;;;;;;;;;5068188;28;20048;-82
2021/10/20 08:35:16;;;;;;;5.50;3.50;;;;;;;;;;5072645;28;20044;-83
2021/10/20 08:37:43;;;;;;;6.88;3.05;;;;;;;;;;5069683;28;20049;-81
2021/10/20 08:40:11;;;;;;;5.68;3.03;;;;;;;;;;5052748;28;20084;-82
2021/10/20 08:42:38;;;;;;;5.13;3.13;;;;;;;;;;5065925;28;20098;-84
2021/10/20 08:45:07;;;;;;;5.40;3.20;;;;;;;;;;5058740;28;20095;-83
2021/10/20 08:47:35;;;;;;;4.28;2.50;;;;;;;;;;5070891;28;20048;-82
2021/10/20 08:50:03;;;;;;;4.50;2.75;;;;;;;;;;5065130;28;20049;-83
2021/10/20 08:52:30;;;;;;;5.57;2.67;;;;;;;;;;5068486;28;20094;-82
2021/10/20 08:54:58;;;;;;;7.18;3.45;;;;;;;;;;5068480;28;20045;-82
2021/10/20 08:57:25;;;;;;;4.28;2.40;;;;;;;;;;5056590;28;20085;-83
2021/10/20 08:59:51;;;;;;;6.07;2.85;;;;;;;;;;5063351;28;20414;-83
2021/10/20 09:02:21;;;;;;;6.07;2.90;;;;;;;;;;5072668;28;20504;-84
2021/10/20 09:04:53;;;;;;;5.25;2.60;;;;;;;;;;5061146;28;20045;-82
2021/10/20 09:07:19;;;;;;;6.53;3.05;;;;;;;;;;5072389;28;20052;-82
2021/10/20 09:09:46;;;;;;;5.55;2.33;;;;;;;;;;5074241;28;20040;-82
2021/10/20 09:12:12;;;;;;;4.32;2.42;;;;;;;;;;5075234;28;20045;-83
2021/10/20 09:14:39;;;;;;;3.70;2.50;;;;;;;;;;5074496;28;20049;-82
2021/10/20 09:17:06;;;;;;;4.45;2.72;;;;;;;;;;5074397;28;20041;-81
2021/10/20 09:19:34;;;;;;;4.75;3.33;;;;;;;;;;5072732;28;20041;-83
2021/10/20 09:22:03;;;;;;;4.47;2.65;;;;;;;;;;5073424;28;20048;-82
2021/10/20 09:24:36;;;;;;;4.68;2.40;;;;;;;;;;5071757;28;20052;-83
2021/10/20 09:27:04;;;;;;;10.50;3.47;;;;;;;;;;5073202;28;20044;-80
2021/10/20 09:29:32;;;;;;;5.22;2.50;;;;;;;;;;5066728;28;20045;-81
2021/10/20 09:31:59;;;;;;;3.40;2.00;;;;;;;;;;5066686;28;20049;-81
2021/10/20 09:34:33;;;;;;;3.53;2.22;;;;;;;;;;5053809;28;20052;-81
2021/10/20 09:37:01;;;;;;;4.88;2.60;;;;;;;;;;5074175;28;20548;-82
2021/10/20 09:39:28;;;;;;;5.57;2.85;;;;;;;;;;5064148;28;20450;-80
2021/10/20 09:41:55;;;;;;;4.72;2.60;;;;;;;;;;5055056;28;20048;-81
2021/10/20 09:44:21;;;;;;;3.97;2.30;;;;;;;;;;5057203;28;20110;-80
2021/10/20 09:46:48;;;;;;;3.78;2.30;;;;;;;;;;5063900;28;20047;-80
2021/10/20 09:49:16;;;;;;;4.57;2.63;;;;;;;;;;5064468;28;20045;-80
2021/10/20 09:51:43;;;;;;;4.63;2.75;;;;;;;;;;5071624;28;20056;-80
2021/10/20 09:54:27;;;;;;;6.88;2.60;;;;;;;;;;5077077;28;20040;-81
2021/10/20 09:56:55;;;;;;;8.80;2.53;;;;;;;;;;5075775;28;20068;-80
2021/10/20 09:59:22;;;;;;;6.38;2.30;;;;;;;;;;5070834;28;20040;-80
2021/10/20 10:01:49;;;;;;;5.00;2.13;;;;;;;;;;5077613;28;20052;-80
2021/10/20 10:04:16;;;;;;;5.57;2.38;;;;;;;;;;5068868;28;20441;-81
2021/10/20 10:06:42;;;;;;;4.97;2.30;;;;;;;;;;5071429;28;20044;-81
2021/10/20 10:09:11;;;;;;;3.65;2.10;;;;;;;;;;5066232;28;20047;-81
2021/10/20 10:11:42;;;;;;;4.47;2.05;;;;;;;;;;5057207;28;20049;-79
2021/10/20 10:14:09;;;;;;;5.68;2.05;;;;;;;;;;5058979;28;20489;-80
2021/10/20 10:16:36;;;;;;;5.43;2.08;;;;;;;;;;5072378;28;20455;-80
2021/10/20 10:19:03;;;;;;;3.50;2.20;;;;;;;;;;5061608;28;20056;-80
2021/10/20 10:21:32;;;;;;;3.70;2.40;;;;;;;;;;5072807;28;20041;-80
2021/10/20 10:23:59;;;;;;;4.55;2.45;;;;;;;;;;5067749;28;20040;-80
2021/10/20 10:26:26;;;;;;;4.07;2.42;;;;;;;;;;5066559;28;20078;-80
2021/10/20 10:29:08;;;;;;;3.47;2.30;;;;;;;;;;5072664;28;20045;-81
2021/10/20 10:31:36;;;;;;;5.30;2.60;;;;;;;;;;5069437;28;20047;-81
2021/10/20 10:34:02;;;;;;;3.88;2.30;;;;;;;;;;5070625;28;20075;-81
2021/10/20 10:36:30;;;;;;;4.50;2.28;;;;;;;;;;5075451;28;20049;-81
2021/10/20 10:39:06;;;;;;;5.28;2.10;;;;;;;;;;5067349;28;20110;-82
2021/10/20 10:41:35;;;;;;;5.47;2.10;;;;;;;;;;5077244;28;20064;-80
2021/10/20 10:44:20;;;;;;;3.53;2.00;;;;;;;;;;5063886;28;20045;-79
2021/10/20 10:47:04;;;;;;;5.28;2.70;;;;;;;;;;5070122;28;20415;-80
2021/10/20 10:49:34;;;;;;;3.00;2.03;;;;;;;;;;5075001;28;20098;-80
2021/10/20 10:52:22;;;;;;;4.78;2.30;;;;;;;;;;5076835;28;20190;-79
2021/10/20 10:54:55;;;;;;;14.68;2.80;;;;;;;;;;5075131;28;20037;-80
2021/10/20 10:57:22;;;;;;;4.50;2.03;;;;;;;;;;5058025;28;20060;-80
2021/10/20 10:59:54;;;;;;;4.50;2.10;;;;;;;;;;5076280;28;20052;-79
2021/10/20 11:02:43;;;;;;;6.60;2.47;;;;;;;;;;5069100;28;20556;-80
2021/10/20 11:05:10;;;;;;;5.47;2.40;;;;;;;;;;5079343;28;20518;-79
2021/10/20 11:07:37;;;;;;;5.65;2.90;;;;;;;;;;5077660;28;20041;-79
2021/10/20 11:10:04;;;;;;;4.75;2.40;;;;;;;;;;5080408;28;20045;-81
2021/10/20 11:12:31;;;;;;;4.35;2.35;;;;;;;;;;5083436;28;20056;-81
2021/10/20 11:14:59;;;;;;;3.97;2.30;;;;;;;;;;5069062;28;20459;-82
2021/10/20 11:17:26;;;;;;;4.63;2.08;;;;;;;;;;5067989;28;20045;-80
2021/10/20 11:19:52;;;;;;;4.47;2.33;;;;;;;;;;5073925;28;20512;-81
2021/10/20 11:22:19;;;;;;;4.28;2.00;;;;;;;;;;5058818;28;20049;-81
2021/10/20 11:24:47;;;;;;;5.80;2.58;;;;;;;;;;5056030;28;20569;-81
2021/10/20 11:27:14;;;;;;;4.22;2.30;;;;;;;;;;5060250;28;20466;-80
2021/10/20 11:29:42;;;;;;;3.83;1.70;;;;;;;;;;5074162;28;20048;-81
2021/10/20 11:32:11;;;;;;;3.25;1.90;;;;;;;;;;5050050;28;20045;-81
2021/10/20 11:34:39;;;;;;;3.55;2.03;;;;;;;;;;5075584;28;20056;-80
2021/10/20 11:37:07;;;;;;;4.03;1.85;;;;;;;;;;5056792;28;20053;-80
2021/10/20 11:39:34;;;;;;;3.67;2.00;;;;;;;;;;5057239;28;20045;-80
2021/10/20 11:42:03;;;;;;;3.25;1.88;;;;;;;;;;5057598;28;20048;-82
2021/10/20 11:44:30;;;;;;;5.00;2.13;;;;;;;;;;5071961;28;20106;-80
2021/10/20 11:46:57;;;;;;;4.22;2.10;;;;;;;;;;5068200;28;20048;-81
2021/10/20 11:49:25;;;;;;;4.68;2.40;;;;;;;;;;5076543;28;20044;-80
2021/10/20 11:51:52;;;;;;;4.45;2.05;;;;;;;;;;5074509;28;20045;-80
2021/10/20 11:54:21;;;;;;;3.28;2.00;;;;;;;;;;5073999;28;20037;-80
2021/10/20 11:56:50;;;;;;;3.28;2.00;;;;;;;;;;5064709;28;20037;-81
2021/10/20 11:59:20;;;;;;;3.28;2.17;;;;;;;;;;5066390;28;20068;-81
2021/10/20 12:01:48;;;;;;;3.63;2.17;;;;;;;;;;5063286;28;20052;-80
2021/10/20 12:04:14;;;;;;;3.00;1.83;;;;;;;;;;5069800;28;20068;-80
2021/10/20 12:06:42;;;;;;;4.25;2.20;;;;;;;;;;5066823;28;20064;-81
2021/10/20 12:09:10;;;;;;;6.20;2.47;;;;;;;;;;5066884;28;20044;-80
2021/10/20 12:11:36;;;;;;;4.20;2.38;;;;;;;;;;5065883;28;20064;-79
2021/10/20 12:14:05;;;;;;;3.38;2.20;;;;;;;;;;5065667;28;20513;-81
2021/10/20 12:16:31;;;;;;;4.47;2.10;;;;;;;;;;5059671;28;20071;-82
2021/10/20 12:18:58;;;;;;;5.00;2.40;;;;;;;;;;5067209;28;20048;-83
2021/10/20 12:21:28;;;;;;;3.10;2.00;;;;;;;;;;5064901;28;20068;-80
2021/10/20 12:23:59;;;;;;;4.07;2.03;;;;;;;;;;5060037;28;20065;-81
2021/10/20 12:26:27;;;;;;;4.68;2.08;;;;;;;;;;5070749;28;20041;-81
2021/10/20 12:28:54;;;;;;;5.65;2.28;;;;;;;;;;5072613;28;20136;-81
2021/10/20 12:31:22;;;;;;;5.35;2.30;;;;;;;;;;5068866;28;20044;-81
2021/10/20 12:33:51;;;;;;;4.45;2.55;;;;;;;;;;5065795;28;20041;-80
2021/10/20 12:36:21;;;;;;;5.53;2.67;;;;;;;;;;5071682;28;20127;-80
2021/10/20 12:38:48;;;;;;;4.18;2.30;;;;;;;;;;5066938;28;20044;-80
2021/10/20 12:41:18;;;;;;;5.38;2.60;;;;;;;;;;5070941;28;20107;-81
2021/10/20 12:43:45;;;;;;;3.38;2.15;;;;;;;;;;5065437;28;20044;-81
2021/10/20 12:46:13;;;;;;;4.15;2.40;;;;;;;;;;5060666;28;20049;-82
2021/10/20 12:48:39;;;;;;;7.43;2.45;;;;;;;;;;5070151;28;20362;-81
2021/10/20 12:51:10;;;;;;;3.75;2.55;;;;;;;;;;5056825;28;20059;-81
2021/10/20 12:53:42;;;;;;;3.60;2.35;;;;;;;;;;5072839;28;20044;-81
2021/10/20 12:56:09;;;;;;;4.55;2.40;;;;;;;;;;5055853;28;20071;-81
2021/10/20 12:58:37;;;;;;;3.50;2.50;;;;;;;;;;5055223;28;20089;-81
2021/10/20 13:01:04;;;;;;;4.30;2.58;;;;;;;;;;5075553;28;20049;-82
2021/10/20 13:03:30;;;;;;;3.42;2.17;;;;;;;;;;5071477;28;20383;-81
2021/10/20 13:05:57;;;;;;;5.50;2.60;;;;;;;;;;5069560;28;20406;-81
2021/10/20 13:08:23;;;;;;;4.53;2.72;;;;;;;;;;5068209;28;20344;-82
2021/10/20 13:10:50;;;;;;;4.63;3.25;;;;;;;;;;5076787;28;20048;-82
2021/10/20 13:13:17;;;;;;;4.50;2.63;;;;;;;;;;5069380;28;20056;-81
2021/10/20 13:15:45;;;;;;;5.70;2.78;;;;;;;;;;5059785;28;20041;-82
2021/10/20 13:18:12;;;;;;;4.15;2.78;;;;;;;;;;5075925;28;20055;-82
2021/10/20 13:20:39;;;;;;;5.97;2.67;;;;;;;;;;5075121;28;20471;-82
2021/10/20 13:23:07;;;;;;;8.32;2.67;;;;;;;;;;5065867;28;20051;-80
2021/10/20 13:25:34;;;;;;;4.85;2.75;;;;;;;;;;5069388;28;20086;-82
2021/10/20 13:28:02;;;;;;;3.72;2.30;;;;;;;;;;5073145;28;20056;-83
2021/10/20 13:30:29;;;;;;;3.50;2.45;;;;;;;;;;5072706;28;20064;-80
2021/10/20 13:32:56;;;;;;;4.88;2.92;;;;;;;;;;5074175;28;20053;-80
2021/10/20 13:35:23;;;;;;;6.63;2.67;;;;;;;;;;5070093;28;20056;-82
2021/10/20 13:37:49;;;;;;;4.45;2.60;;;;;;;;;;5080288;28;20055;-82
2021/10/20 13:40:16;;;;;;;3.88;2.28;;;;;;;;;;5081768;28;20044;-81
2021/10/20 13:42:43;;;;;;;5.45;2.70;;;;;;;;;;5062991;28;20106;-81
2021/10/20 13:45:11;;;;;;;3.63;2.20;;;;;;;;;;5058230;28;20041;-81
2021/10/20 13:47:37;;;;;;;3.67;2.28;;;;;;;;;;5069472;28;20045;-81
2021/10/20 13:50:06;;;;;;;3.60;2.17;;;;;;;;;;5061264;28;20045;-81
2021/10/20 13:52:32;;;;;;;4.03;2.85;;;;;;;;;;5059161;28;20049;-82
2021/10/20 13:54:59;;;;;;;3.33;2.20;;;;;;;;;;5065344;28;20053;-82
2021/10/20 13:57:25;;;;;;;3.47;2.17;;;;;;;;;;5066343;28;20037;-82
2021/10/20 13:59:54;;;;;;;3.50;2.22;;;;;;;;;;5071228;28;20102;-82
2021/10/20 14:02:20;;;;;;;7.07;2.50;;;;;;;;;;5058844;28;20528;-82
2021/10/20 14:04:50;;;;;;;3.95;2.63;;;;;;;;;;5068061;28;20051;-81
2021/10/20 14:07:18;;;;;;;6.72;2.13;;;;;;;;;;5074076;28;20041;-82
2021/10/20 14:09:44;;;;;;;4.30;2.40;;;;;;;;;;5065137;28;20044;-81
2021/10/20 14:12:12;;;;;;;4.03;2.47;;;;;;;;;;5077989;28;20605;-81
2021/10/20 14:14:39;;;;;;;7.13;2.50;;;;;;;;;;5076092;28;20040;-82
2021/10/20 14:17:05;;;;;;;3.58;2.17;;;;;;;;;;5067031;28;20409;-81
2021/10/20 14:19:32;;;;;;;5.50;2.40;;;;;;;;;;5060495;28;20056;-80
2021/10/20 14:21:59;;;;;;;4.35;2.70;;;;;;;;;;5056437;28;20095;-80
2021/10/20 14:24:27;;;;;;;3.95;2.13;;;;;;;;;;5064667;28;20040;-81
2021/10/20 14:26:54;;;;;;;3.55;2.00;;;;;;;;;;5075419;28;20118;-81
2021/10/20 14:29:22;;;;;;;5.30;2.75;;;;;;;;;;5078390;28;20044;-81
2021/10/20 14:31:50;;;;;;;4.35;2.25;;;;;;;;;;5068805;28;20098;-81
2021/10/20 14:34:17;;;;;;;5.15;2.28;;;;;;;;;;5066390;28;20468;-81
2021/10/20 14:36:44;;;;;;;4.68;2.53;;;;;;;;;;5058283;28;20049;-81
2021/10/20 14:39:11;;;;;;;6.00;2.58;;;;;;;;;;5056769;28;20049;-81
2021/10/20 14:41:39;;;;;;;5.28;2.40;;;;;;;;;;5069233;28;20505;-81
2021/10/20 14:44:07;;;;;;;5.00;2.25;;;;;;;;;;5058573;28;20111;-83